createdAt,value
2023-04-19T00:00:19.941Z,5.50
2023-04-19T00:10:24.319Z,5.27
2023-04-19T00:20:27.282Z,5.90
2023-04-19T00:30:32.149Z,6.60
2023-04-19T00:40:35.788Z,6.93
2023-04-19T00:50:42.744Z,6.30
2023-04-19T01:00:45.795Z,7.33
2023-04-19T01:10:50.478Z,5.03
2023-04-19T01:20:53.728Z,6.37
2023-04-19T01:30:59.231Z,6.43
2023-04-19T01:41:02.415Z,7.43
2023-04-19T01:51:08.595Z,5.23
2023-04-19T02:01:12.843Z,8.60
2023-04-19T02:11:17.413Z,6.83
2023-04-19T02:21:20.748Z,7.27
2023-04-19T02:31:25.564Z,8.03
2023-04-19T02:41:28.583Z,6.53
2023-04-19T02:51:32.906Z,6.77
2023-04-19T03:01:36.580Z,6.13
2023-04-19T03:11:44.038Z,10.33
2023-04-19T03:21:48.469Z,15.40
2023-04-19T03:31:54.504Z,7.13
2023-04-19T03:41:57.769Z,9.70
2023-04-19T03:52:11.333Z,9.53
2023-04-19T04:02:16.220Z,10.67
2023-04-19T04:12:21.441Z,11.03
2023-04-19T04:22:26.084Z,7.83
2023-04-19T04:32:31.216Z,10.80
2023-04-19T04:42:37.936Z,11.33
2023-04-19T04:52:43.976Z,15.60
2023-04-19T05:02:52.882Z,10.97
2023-04-19T05:12:57.567Z,10.37
2023-04-19T05:23:03.382Z,9.67
2023-04-19T05:33:10.238Z,12.40
2023-04-19T05:43:14.252Z,10.50
2023-04-19T05:53:18.846Z,9.67
2023-04-19T06:03:22.346Z,13.00
2023-04-19T06:13:27.731Z,11.87
2023-04-19T06:23:31.058Z,13.53
2023-04-19T06:33:36.638Z,14.70
2023-04-19T06:43:40.988Z,12.23
2023-04-19T06:53:45.599Z,11.83
2023-04-19T07:03:49.497Z,13.50
2023-04-19T07:13:54.293Z,13.73
2023-04-19T07:23:57.708Z,16.07
2023-04-19T07:34:02.081Z,12.63
2023-04-19T07:44:05.172Z,11.93
2023-04-19T07:54:10.420Z,11.50
2023-04-19T08:04:13.531Z,11.10
2023-04-19T08:14:32.543Z,10.47
2023-04-19T08:24:38.730Z,10.60
2023-04-19T08:34:43.269Z,13.63
2023-04-19T08:54:55.964Z,11.53
2023-04-19T09:04:59.606Z,8.43
2023-04-19T09:15:08.707Z,9.67
2023-04-19T09:35:45.671Z,8.17
2023-04-19T09:45:48.742Z,6.23
2023-04-19T09:56:01.393Z,5.97
2023-04-19T10:06:10.582Z,5.03
2023-04-19T10:16:20.507Z,4.30
2023-04-19T10:26:25.801Z,4.53
2023-04-19T10:36:30.294Z,3.33
2023-04-19T10:46:41.192Z,4.57
2023-04-19T10:57:04.746Z,4.57
2023-04-19T11:07:08.720Z,4.40
2023-04-19T11:17:25.304Z,7.40
2023-04-19T11:27:28.249Z,5.07
2023-04-19T11:37:36.508Z,10.57
2023-04-19T11:47:49.317Z,3.70
2023-04-19T11:57:53.555Z,3.70
2023-04-19T12:08:04.408Z,4.63
2023-04-19T12:18:08.927Z,6.13
2023-04-19T12:28:11.922Z,2.73
2023-04-19T12:38:16.087Z,5.23
2023-04-19T12:48:19.168Z,2.50
2023-04-19T12:58:23.575Z,2.23
2023-04-19T13:32:45.807Z,5.05
2023-04-19T13:42:48.850Z,4.67
2023-04-19T13:52:55.678Z,2.17
2023-04-19T14:02:58.943Z,1.90
2023-04-19T14:13:03.777Z,3.77
2023-04-19T14:23:07.000Z,5.10
2023-04-19T14:33:12.106Z,5.43
2023-04-19T14:43:16.474Z,2.53
2023-04-19T14:53:21.078Z,6.20
2023-04-19T15:03:24.308Z,4.60
2023-04-19T15:13:29.865Z,5.50
2023-04-19T15:23:33.169Z,1.63
2023-04-19T15:33:39.512Z,2.37
2023-04-19T15:43:45.239Z,4.73
2023-04-19T15:53:49.759Z,6.50
2023-04-19T16:03:53.061Z,3.47
2023-04-19T16:13:57.747Z,3.10
2023-04-19T16:24:01.984Z,3.97
2023-04-19T16:34:06.285Z,8.53
2023-04-19T16:44:09.412Z,4.43
2023-04-19T16:54:13.925Z,8.37
2023-04-19T17:14:40.732Z,3.80
2023-04-19T17:24:44.270Z,4.37
2023-04-19T17:34:48.486Z,4.67
2023-04-19T17:44:52.331Z,4.63
2023-04-19T17:54:57.369Z,3.40
2023-04-19T18:05:00.252Z,3.97
2023-04-19T18:15:06.286Z,3.67
2023-04-19T18:25:10.233Z,4.20
2023-04-19T18:35:14.398Z,4.77
2023-04-19T18:45:17.928Z,4.17
2023-04-19T18:55:22.862Z,3.37
2023-04-19T19:05:26.615Z,3.93
2023-04-19T19:15:31.443Z,3.93
2023-04-19T19:25:34.989Z,5.70
2023-04-19T19:35:39.963Z,7.67
2023-04-19T19:45:43.060Z,3.03
2023-04-19T19:55:48.183Z,7.20
2023-04-19T20:05:52.327Z,4.70
2023-04-19T20:15:58.721Z,3.43
2023-04-19T20:26:02.286Z,6.83
2023-04-19T20:36:07.292Z,4.83
2023-04-19T20:46:10.466Z,4.90
2023-04-19T20:56:15.753Z,6.53
2023-04-19T21:06:22.440Z,5.57
2023-04-19T21:16:27.982Z,7.80
2023-04-19T21:26:31.323Z,4.73
2023-04-19T21:36:36.722Z,4.33
2023-04-19T21:46:39.992Z,5.07
2023-04-19T21:56:44.306Z,3.93
2023-04-19T22:06:47.454Z,6.77
2023-04-19T22:16:54.211Z,5.10
2023-04-19T22:26:57.640Z,6.33
2023-04-19T22:37:02.115Z,6.97
2023-04-19T22:47:05.195Z,10.00
2023-04-19T22:57:10.442Z,6.53
2023-04-19T23:07:13.658Z,5.23
2023-04-19T23:17:18.251Z,4.87
2023-04-19T23:27:21.563Z,3.77
2023-04-19T23:37:26.360Z,6.33
2023-04-19T23:47:29.449Z,5.97
2023-04-19T23:57:36.103Z,6.37
